createdAt,value
2022-12-15T00:03:45.208Z,9.00
2022-12-15T00:09:12.660Z,9.05
2022-12-15T00:14:36.895Z,8.93
2022-12-15T00:19:58.572Z,8.57
2022-12-15T00:25:20.612Z,9.38
2022-12-15T00:30:43.440Z,8.07
2022-12-15T00:36:04.646Z,9.38
2022-12-15T00:41:08.837Z,9.77
2022-12-15T00:46:32.676Z,8.48
2022-12-15T00:51:54.396Z,9.27
2022-12-15T00:57:16.159Z,8.98
2022-12-15T01:02:39.028Z,10.43
2022-12-15T01:08:00.737Z,9.90
2022-12-15T01:13:23.479Z,10.15
2022-12-15T01:18:49.632Z,10.00
2022-12-15T01:23:54.529Z,9.93
2022-12-15T01:28:58.550Z,11.50
2022-12-15T01:34:04.086Z,9.63
2022-12-15T01:39:08.258Z,9.40
2022-12-15T01:44:20.711Z,9.82
2022-12-15T01:49:30.391Z,10.13
2022-12-15T01:54:39.914Z,9.52
2022-12-15T01:59:50.834Z,9.65
2022-12-15T02:04:59.057Z,10.52
2022-12-15T02:10:07.396Z,8.68
2022-12-15T02:15:21.797Z,8.18
2022-12-15T02:20:48.796Z,8.68
2022-12-15T02:26:11.599Z,8.95
2022-12-15T02:31:39.433Z,8.98
2022-12-15T02:36:48.283Z,10.38
2022-12-15T02:41:54.951Z,10.32
2022-12-15T02:47:26.403Z,11.15
2022-12-15T02:52:46.077Z,10.38
2022-12-15T03:03:00.993Z,11.18
2022-12-15T03:08:05.341Z,9.55
2022-12-15T03:13:09.629Z,11.10
2022-12-15T03:18:16.558Z,10.43
2022-12-15T03:23:23.023Z,10.35
2022-12-15T03:28:27.043Z,9.82
2022-12-15T03:33:34.672Z,11.40
2022-12-15T03:38:39.223Z,12.30
2022-12-15T03:43:43.275Z,8.75
2022-12-15T03:48:48.896Z,9.23
2022-12-15T03:53:53.930Z,9.93
2022-12-15T03:58:58.051Z,9.15
2022-12-15T04:04:04.502Z,9.27
2022-12-15T04:09:08.786Z,8.68
2022-12-15T04:14:12.919Z,8.25
2022-12-15T04:19:35.749Z,10.32
2022-12-15T04:24:56.814Z,9.93
2022-12-15T04:30:18.638Z,10.70
2022-12-15T04:35:41.203Z,12.00
2022-12-15T04:41:02.833Z,11.75
2022-12-15T04:46:24.571Z,13.20
2022-12-15T04:51:47.273Z,18.33
2022-12-15T04:57:08.453Z,14.63
2022-12-15T05:02:29.620Z,16.63
2022-12-15T05:07:52.568Z,14.77
2022-12-15T05:13:14.195Z,13.35
2022-12-15T05:18:36.092Z,14.52
2022-12-15T05:23:58.890Z,14.65
2022-12-15T05:29:20.646Z,13.27
2022-12-15T05:34:27.098Z,15.52
2022-12-15T05:39:32.671Z,14.55
2022-12-15T05:44:36.740Z,16.38
2022-12-15T05:49:42.531Z,17.25
2022-12-15T05:54:49.137Z,22.27
2022-12-15T05:59:53.415Z,28.85
2022-12-15T06:04:57.520Z,22.15
2022-12-15T06:10:03.009Z,24.45
2022-12-15T06:15:07.872Z,24.58
2022-12-15T06:20:13.435Z,27.55
2022-12-15T06:25:18.966Z,31.65
2022-12-15T06:30:23.118Z,26.25
2022-12-15T06:35:27.531Z,25.67
2022-12-15T06:40:37.657Z,26.83
2022-12-15T06:45:49.877Z,22.65
2022-12-15T06:50:54.179Z,23.48
2022-12-15T06:56:18.074Z,31.60
2022-12-15T07:01:23.672Z,33.70
2022-12-15T07:06:30.420Z,32.88
2022-12-15T07:11:36.155Z,29.45
2022-12-15T07:16:41.285Z,28.50
2022-12-15T07:21:45.672Z,29.13
2022-12-15T07:26:51.206Z,40.45
2022-12-15T07:31:56.262Z,43.22
2022-12-15T07:37:03.091Z,37.72
2022-12-15T07:42:09.097Z,25.65
2022-12-15T07:47:13.194Z,25.35
2022-12-15T07:52:17.344Z,25.65
2022-12-15T07:57:24.044Z,30.08
2022-12-15T08:02:28.668Z,30.70
2022-12-15T08:07:32.839Z,32.03
2022-12-15T08:12:38.545Z,31.67
2022-12-15T08:17:42.756Z,36.78
2022-12-15T08:22:47.037Z,38.45
2022-12-15T08:27:53.271Z,40.78
2022-12-15T08:32:57.475Z,42.67
2022-12-15T08:38:05.586Z,45.67
2022-12-15T08:43:12.676Z,27.15
2022-12-15T08:48:17.592Z,42.60
2022-12-15T08:53:31.398Z,37.13
2022-12-15T08:58:37.935Z,41.03
2022-12-15T09:03:42.097Z,36.60
2022-12-15T09:08:48.463Z,33.35
2022-12-15T09:13:57.657Z,33.53
2022-12-15T09:19:02.710Z,33.80
2022-12-15T09:24:07.707Z,41.17
2022-12-15T09:29:14.576Z,40.92
2022-12-15T09:34:20.038Z,35.33
2022-12-15T09:39:24.742Z,25.38
2022-12-15T09:44:34.231Z,15.35
2022-12-15T09:49:48.844Z,9.95
2022-12-15T09:54:53.307Z,15.43
2022-12-15T10:00:10.379Z,10.35
2022-12-15T10:05:29.773Z,6.00
2022-12-15T10:10:46.604Z,5.50
2022-12-15T10:16:01.050Z,5.60
2022-12-15T10:21:05.447Z,6.40
2022-12-15T10:26:20.963Z,7.50
2022-12-15T10:31:36.230Z,6.90
2022-12-15T10:36:50.691Z,5.65
2022-12-15T10:42:24.541Z,6.82
2022-12-15T10:47:32.183Z,7.95
2022-12-15T10:52:38.961Z,5.18
2022-12-15T10:58:01.426Z,6.25
2022-12-15T11:03:22.558Z,12.55
2022-12-15T11:08:28.962Z,4.78
2022-12-15T11:13:35.040Z,6.10
2022-12-15T11:18:48.762Z,9.52
2022-12-15T11:23:59.234Z,8.13
2022-12-15T11:29:12.863Z,5.15
2022-12-15T11:34:21.274Z,6.60
2022-12-15T11:39:38.284Z,11.77
2022-12-15T11:44:53.559Z,17.70
2022-12-15T11:50:21.264Z,8.10
2022-12-15T11:55:41.508Z,10.65
2022-12-15T12:00:52.425Z,9.85
2022-12-15T12:06:09.124Z,10.70
2022-12-15T12:11:17.516Z,11.02
2022-12-15T12:16:33.202Z,11.17
2022-12-15T12:21:44.397Z,10.88
2022-12-15T12:26:56.144Z,7.25
2022-12-15T12:32:09.025Z,13.80
2022-12-15T12:37:23.801Z,7.72
2022-12-15T12:42:36.613Z,7.32
2022-12-15T12:47:45.580Z,8.52
2022-12-15T12:52:53.903Z,11.57
2022-12-15T12:57:59.178Z,9.05
2022-12-15T13:03:20.413Z,8.57
2022-12-15T13:08:55.927Z,7.90
2022-12-15T13:14:00.252Z,11.93
2022-12-15T13:19:08.571Z,16.90
2022-12-15T13:24:27.593Z,21.52
2022-12-15T13:29:31.901Z,31.43
2022-12-15T13:34:39.980Z,18.63
2022-12-15T13:39:58.659Z,22.17
2022-12-15T13:45:39.924Z,11.50
2022-12-15T13:50:54.519Z,11.32
2022-12-15T13:56:46.135Z,32.72
2022-12-15T14:01:52.449Z,21.45
2022-12-15T14:06:59.493Z,16.50
2022-12-15T14:12:07.466Z,21.45
2022-12-15T14:17:16.944Z,12.32
2022-12-15T14:27:50.686Z,14.63
2022-12-15T14:32:59.851Z,17.85
2022-12-15T14:38:08.072Z,13.27
2022-12-15T14:43:20.679Z,13.85
2022-12-15T14:48:41.114Z,35.03
2022-12-15T14:53:57.218Z,40.63
2022-12-15T14:59:04.882Z,25.52
2022-12-15T15:04:25.183Z,35.70
2022-12-15T15:09:31.546Z,26.38
2022-12-15T15:14:46.269Z,16.75
2022-12-15T15:19:53.020Z,39.85
2022-12-15T15:24:57.458Z,47.13
2022-12-15T15:30:19.989Z,47.78
2022-12-15T15:35:27.051Z,35.00
2022-12-15T15:40:33.213Z,33.38
2022-12-15T15:45:38.958Z,33.30
2022-12-15T15:50:43.382Z,36.33
2022-12-15T15:55:50.591Z,35.72
2022-12-15T16:00:58.341Z,36.55
2022-12-15T16:06:03.105Z,39.08
2022-12-15T16:11:07.884Z,36.17
2022-12-15T16:16:19.259Z,32.85
2022-12-15T16:21:27.717Z,37.55
2022-12-15T16:26:34.363Z,38.90
2022-12-15T16:31:45.494Z,43.95
2022-12-15T16:36:51.317Z,39.95
2022-12-15T16:41:56.934Z,40.60
2022-12-15T16:47:05.353Z,34.72
2022-12-15T16:52:20.355Z,56.50
2022-12-15T16:57:25.465Z,66.95
2022-12-15T17:02:34.921Z,52.38
2022-12-15T17:07:41.210Z,51.92
2022-12-15T17:12:49.328Z,59.78
2022-12-15T17:17:58.361Z,86.13
2022-12-15T17:23:05.883Z,53.10
2022-12-15T17:28:17.359Z,38.33
2022-12-15T17:33:26.366Z,25.33
2022-12-15T17:38:30.878Z,21.73
2022-12-15T17:43:36.199Z,13.45
2022-12-15T17:48:41.900Z,11.63
2022-12-15T17:53:47.717Z,20.85
2022-12-15T17:58:52.203Z,23.77
2022-12-15T18:03:57.765Z,23.08
2022-12-15T18:09:02.319Z,38.25
2022-12-15T18:14:11.178Z,37.25
2022-12-15T18:19:16.838Z,35.78
2022-12-15T18:24:21.688Z,31.23
2022-12-15T18:29:26.383Z,66.45
2022-12-15T18:34:31.866Z,35.40
2022-12-15T18:39:36.731Z,19.35
2022-12-15T18:44:48.961Z,29.08
2022-12-15T18:49:54.742Z,37.08
2022-12-15T18:54:59.751Z,41.88
2022-12-15T19:00:17.725Z,39.60
2022-12-15T19:05:29.439Z,12.18
2022-12-15T19:10:35.769Z,10.40
2022-12-15T19:15:39.743Z,18.77
2022-12-15T19:21:02.664Z,19.92
2022-12-15T19:26:07.130Z,8.82
2022-12-15T19:31:11.354Z,5.40
2022-12-15T19:36:21.261Z,45.55
2022-12-15T19:41:26.304Z,48.42
2022-12-15T19:46:30.421Z,50.15
2022-12-15T19:51:35.950Z,47.35
2022-12-15T19:56:40.477Z,42.92
2022-12-15T20:01:44.622Z,51.38
2022-12-15T20:06:50.563Z,73.07
2022-12-15T20:11:54.567Z,78.97
2022-12-15T20:16:59.330Z,60.95
2022-12-15T20:22:06.943Z,53.60
2022-12-15T20:27:14.483Z,47.13
2022-12-15T20:32:22.141Z,49.40
2022-12-15T20:37:30.319Z,42.80
2022-12-15T20:42:34.380Z,64.55
2022-12-15T20:47:43.642Z,69.38
2022-12-15T20:52:49.648Z,67.85
2022-12-15T20:57:55.933Z,71.75
2022-12-15T21:03:00.359Z,73.60
2022-12-15T21:08:15.750Z,84.38
2022-12-15T21:13:23.300Z,84.30
2022-12-15T21:19:11.046Z,70.47
2022-12-15T21:23:54.696Z,54.47
2022-12-15T21:29:00.934Z,44.97
2022-12-15T21:34:05.008Z,40.42
2022-12-15T21:39:14.033Z,35.53
2022-12-15T21:44:18.825Z,31.63
2022-12-15T21:49:24.098Z,34.10
2022-12-15T21:54:32.906Z,52.45
2022-12-15T21:59:38.831Z,55.92
2022-12-15T22:04:43.162Z,49.13
2022-12-15T22:09:48.658Z,48.35
2022-12-15T22:14:53.309Z,61.28
2022-12-15T22:19:57.375Z,50.72
2022-12-15T22:25:04.180Z,65.43
2022-12-15T22:30:16.236Z,73.78
2022-12-15T22:35:22.861Z,63.08
2022-12-15T22:40:30.383Z,50.67
2022-12-15T22:45:37.092Z,47.25
2022-12-15T22:50:45.253Z,43.38
2022-12-15T22:55:52.246Z,51.03
2022-12-15T23:00:58.893Z,57.42
2022-12-15T23:06:04.894Z,48.63
2022-12-15T23:11:28.128Z,50.67
2022-12-15T23:16:32.503Z,46.72
2022-12-15T23:21:37.503Z,50.53
2022-12-15T23:26:42.843Z,42.30
2022-12-15T23:31:47.551Z,40.08
2022-12-15T23:36:51.741Z,48.67
2022-12-15T23:41:57.308Z,42.55
2022-12-15T23:47:01.632Z,40.40
2022-12-15T23:52:07.149Z,41.92
2022-12-15T23:57:15.583Z,39.50
